sensor_id;sensor_type;location;lat;lon;timestamp;P1;durP1;ratioP1;P2;durP2;ratioP2
39620;SDS011;25309;48.686;9.170;2023-03-30T03:02:09;8.97;;;3.13;;
39620;SDS011;25309;48.686;9.170;2023-03-30T03:04:42;6.53;;;2.77;;
39620;SDS011;25309;48.686;9.170;2023-03-30T03:07:21;8.80;;;2.50;;
39620;SDS011;25309;48.686;9.170;2023-03-30T03:09:50;10.57;;;2.93;;
39620;SDS011;25309;48.686;9.170;2023-03-30T03:12:17;10.70;;;3.33;;
39620;SDS011;25309;48.686;9.170;2023-03-30T03:14:44;7.20;;;2.50;;
39620;SDS011;25309;48.686;9.170;2023-03-30T03:17:13;8.17;;;2.53;;
39620;SDS011;25309;48.686;9.170;2023-03-30T03:19:47;11.07;;;3.43;;
39620;SDS011;25309;48.686;9.170;2023-03-30T03:22:16;8.80;;;2.87;;
39620;SDS011;25309;48.686;9.170;2023-03-30T03:24:44;11.93;;;3.10;;
39620;SDS011;25309;48.686;9.170;2023-03-30T03:27:32;11.83;;;2.97;;
39620;SDS011;25309;48.686;9.170;2023-03-30T03:30:16;9.63;;;3.03;;
39620;SDS011;25309;48.686;9.170;2023-03-30T03:32:53;12.50;;;2.77;;
39620;SDS011;25309;48.686;9.170;2023-03-30T03:35:23;11.03;;;2.80;;
39620;SDS011;25309;48.686;9.170;2023-03-30T03:37:50;9.33;;;2.87;;
39620;SDS011;25309;48.686;9.170;2023-03-30T03:40:17;7.37;;;2.70;;
39620;SDS011;25309;48.686;9.170;2023-03-30T03:42:44;8.63;;;2.63;;
39620;SDS011;25309;48.686;9.170;2023-03-30T03:45:13;8.37;;;2.67;;
39620;SDS011;25309;48.686;9.170;2023-03-30T03:47:53;9.33;;;2.60;;
39620;SDS011;25309;48.686;9.170;2023-03-30T03:50:42;9.77;;;2.53;;
39620;SDS011;25309;48.686;9.170;2023-03-30T03:53:10;9.47;;;2.50;;
39620;SDS011;25309;48.686;9.170;2023-03-30T03:55:37;9.57;;;3.00;;
39620;SDS011;25309;48.686;9.170;2023-03-30T03:58:05;10.53;;;2.47;;
39620;SDS011;25309;48.686;9.170;2023-03-30T04:00:32;10.63;;;2.47;;
39620;SDS011;25309;48.686;9.170;2023-03-30T04:03:01;9.40;;;2.50;;
39620;SDS011;25309;48.686;9.170;2023-03-30T04:05:30;9.60;;;3.50;;
39620;SDS011;25309;48.686;9.170;2023-03-30T04:07:57;8.03;;;2.87;;
39620;SDS011;25309;48.686;9.170;2023-03-30T04:10:24;9.40;;;2.90;;
39620;SDS011;25309;48.686;9.170;2023-03-30T04:12:59;10.57;;;2.97;;
39620;SDS011;25309;48.686;9.170;2023-03-30T04:15:41;13.03;;;3.00;;
39620;SDS011;25309;48.686;9.170;2023-03-30T04:18:23;10.17;;;2.60;;
39620;SDS011;25309;48.686;9.170;2023-03-30T04:21:07;10.57;;;2.47;;
39620;SDS011;25309;48.686;9.170;2023-03-30T04:23:57;9.63;;;2.70;;
39620;SDS011;25309;48.686;9.170;2023-03-30T04:26:42;9.43;;;2.57;;
39620;SDS011;25309;48.686;9.170;2023-03-30T04:29:37;10.60;;;2.73;;
39620;SDS011;25309;48.686;9.170;2023-03-30T04:32:41;9.67;;;2.90;;
39620;SDS011;25309;48.686;9.170;2023-03-30T04:35:25;10.13;;;2.97;;
39620;SDS011;25309;48.686;9.170;2023-03-30T04:37:58;11.60;;;2.60;;
39620;SDS011;25309;48.686;9.170;2023-03-30T04:40:41;9.30;;;2.70;;
39620;SDS011;25309;48.686;9.170;2023-03-30T04:43:27;9.73;;;2.73;;
39620;SDS011;25309;48.686;9.170;2023-03-30T04:46:05;9.43;;;3.20;;
39620;SDS011;25309;48.686;9.170;2023-03-30T04:49:01;7.27;;;2.93;;
39620;SDS011;25309;48.686;9.170;2023-03-30T04:51:46;8.00;;;2.70;;
39620;SDS011;25309;48.686;9.170;2023-03-30T04:54:34;11.13;;;2.83;;
39620;SDS011;25309;48.686;9.170;2023-03-30T04:57:19;9.43;;;2.80;;
39620;SDS011;25309;48.686;9.170;2023-03-30T05:00:24;7.83;;;2.70;;
39620;SDS011;25309;48.686;9.170;2023-03-30T05:03:11;9.83;;;2.73;;
39620;SDS011;25309;48.686;9.170;2023-03-30T05:05:54;8.37;;;3.03;;
39620;SDS011;25309;48.686;9.170;2023-03-30T05:08:42;11.47;;;3.17;;
39620;SDS011;25309;48.686;9.170;2023-03-30T05:11:12;9.80;;;2.67;;
39620;SDS011;25309;48.686;9.170;2023-03-30T05:13:53;8.50;;;2.60;;
39620;SDS011;25309;48.686;9.170;2023-03-30T05:16:43;8.93;;;2.83;;
39620;SDS011;25309;48.686;9.170;2023-03-30T05:19:27;12.23;;;3.63;;
39620;SDS011;25309;48.686;9.170;2023-03-30T05:22:13;11.93;;;3.13;;
39620;SDS011;25309;48.686;9.170;2023-03-30T05:25:00;11.60;;;2.93;;
39620;SDS011;25309;48.686;9.170;2023-03-30T05:27:40;11.83;;;2.83;;
39620;SDS011;25309;48.686;9.170;2023-03-30T05:30:34;7.40;;;2.87;;
39620;SDS011;25309;48.686;9.170;2023-03-30T05:33:10;9.10;;;2.93;;
39620;SDS011;25309;48.686;9.170;2023-03-30T05:35:56;11.00;;;3.17;;
39620;SDS011;25309;48.686;9.170;2023-03-30T05:38:40;6.73;;;2.80;;
39620;SDS011;25309;48.686;9.170;2023-03-30T05:41:46;9.40;;;2.67;;
39620;SDS011;25309;48.686;9.170;2023-03-30T05:44:19;14.13;;;3.20;;
39620;SDS011;25309;48.686;9.170;2023-03-30T05:46:48;10.30;;;2.60;;
39620;SDS011;25309;48.686;9.170;2023-03-30T05:49:27;11.30;;;3.20;;
39620;SDS011;25309;48.686;9.170;2023-03-30T05:52:32;9.77;;;2.97;;
39620;SDS011;25309;48.686;9.170;2023-03-30T05:55:04;8.13;;;2.93;;
39620;SDS011;25309;48.686;9.170;2023-03-30T05:58:08;10.30;;;3.30;;
39620;SDS011;25309;48.686;9.170;2023-03-30T06:00:45;10.10;;;2.83;;
39620;SDS011;25309;48.686;9.170;2023-03-30T06:03:26;10.40;;;3.70;;
39620;SDS011;25309;48.686;9.170;2023-03-30T06:05:53;12.63;;;3.70;;
39620;SDS011;25309;48.686;9.170;2023-03-30T06:08:20;11.50;;;3.60;;
39620;SDS011;25309;48.686;9.170;2023-03-30T06:10:50;10.87;;;3.40;;
39620;SDS011;25309;48.686;9.170;2023-03-30T06:13:19;9.67;;;3.17;;
39620;SDS011;25309;48.686;9.170;2023-03-30T06:15:49;11.03;;;2.97;;
39620;SDS011;25309;48.686;9.170;2023-03-30T06:18:19;9.97;;;2.90;;
39620;SDS011;25309;48.686;9.170;2023-03-30T06:20:54;11.47;;;3.03;;
39620;SDS011;25309;48.686;9.170;2023-03-30T06:23:22;10.43;;;3.13;;
39620;SDS011;25309;48.686;9.170;2023-03-30T06:25:52;12.57;;;3.70;;
39620;SDS011;25309;48.686;9.170;2023-03-30T06:28:27;11.00;;;2.90;;
39620;SDS011;25309;48.686;9.170;2023-03-30T06:30:54;7.70;;;2.60;;
39620;SDS011;25309;48.686;9.170;2023-03-30T06:33:23;8.03;;;2.80;;
39620;SDS011;25309;48.686;9.170;2023-03-30T06:35:56;11.97;;;2.70;;
39620;SDS011;25309;48.686;9.170;2023-03-30T06:38:23;7.73;;;3.03;;
39620;SDS011;25309;48.686;9.170;2023-03-30T06:40:51;10.23;;;2.90;;
39620;SDS011;25309;48.686;9.170;2023-03-30T06:43:21;8.27;;;2.93;;
39620;SDS011;25309;48.686;9.170;2023-03-30T06:45:59;11.07;;;3.20;;
39620;SDS011;25309;48.686;9.170;2023-03-30T06:48:27;11.20;;;3.13;;
39620;SDS011;25309;48.686;9.170;2023-03-30T06:51:14;13.23;;;3.00;;
39620;SDS011;25309;48.686;9.170;2023-03-30T06:53:41;11.90;;;3.00;;
39620;SDS011;25309;48.686;9.170;2023-03-30T06:56:08;8.97;;;2.80;;
39620;SDS011;25309;48.686;9.170;2023-03-30T06:58:47;9.10;;;2.63;;
39620;SDS011;25309;48.686;9.170;2023-03-30T07:01:16;10.87;;;3.30;;
39620;SDS011;25309;48.686;9.170;2023-03-30T07:04:02;10.80;;;3.43;;
39620;SDS011;25309;48.686;9.170;2023-03-30T07:06:52;8.93;;;3.17;;
39620;SDS011;25309;48.686;9.170;2023-03-30T07:09:23;10.23;;;2.90;;
39620;SDS011;25309;48.686;9.170;2023-03-30T07:11:50;8.07;;;2.93;;
39620;SDS011;25309;48.686;9.170;2023-03-30T07:14:21;9.73;;;2.90;;
39620;SDS011;25309;48.686;9.170;2023-03-30T07:16:49;8.97;;;2.67;;
39620;SDS011;25309;48.686;9.170;2023-03-30T07:19:18;10.00;;;3.37;;
39620;SDS011;25309;48.686;9.170;2023-03-30T07:21:45;12.93;;;3.27;;
39620;SDS011;25309;48.686;9.170;2023-03-30T07:24:15;11.90;;;3.07;;
39620;SDS011;25309;48.686;9.170;2023-03-30T07:26:43;9.07;;;2.67;;
39620;SDS011;25309;48.686;9.170;2023-03-30T07:29:10;12.57;;;3.00;;
39620;SDS011;25309;48.686;9.170;2023-03-30T07:31:39;11.30;;;2.93;;
39620;SDS011;25309;48.686;9.170;2023-03-30T07:34:10;8.07;;;3.10;;
39620;SDS011;25309;48.686;9.170;2023-03-30T07:36:44;12.10;;;3.73;;
39620;SDS011;25309;48.686;9.170;2023-03-30T07:39:10;11.27;;;3.70;;
39620;SDS011;25309;48.686;9.170;2023-03-30T07:41:40;9.33;;;2.80;;
39620;SDS011;25309;48.686;9.170;2023-03-30T07:44:07;14.17;;;3.03;;
39620;SDS011;25309;48.686;9.170;2023-03-30T07:46:34;11.03;;;3.20;;
39620;SDS011;25309;48.686;9.170;2023-03-30T07:49:01;9.73;;;3.77;;
39620;SDS011;25309;48.686;9.170;2023-03-30T07:51:31;8.63;;;3.20;;
39620;SDS011;25309;48.686;9.170;2023-03-30T07:54:14;9.13;;;3.23;;
39620;SDS011;25309;48.686;9.170;2023-03-30T07:56:56;10.13;;;3.67;;
39620;SDS011;25309;48.686;9.170;2023-03-30T07:59:23;9.33;;;3.43;;
39620;SDS011;25309;48.686;9.170;2023-03-30T08:01:55;12.17;;;3.07;;
39620;SDS011;25309;48.686;9.170;2023-03-30T08:04:36;9.33;;;2.83;;
39620;SDS011;25309;48.686;9.170;2023-03-30T08:07:05;12.80;;;3.47;;
39620;SDS011;25309;48.686;9.170;2023-03-30T08:09:33;13.57;;;4.43;;
39620;SDS011;25309;48.686;9.170;2023-03-30T08:12:01;13.10;;;5.03;;
39620;SDS011;25309;48.686;9.170;2023-03-30T08:14:28;11.80;;;4.10;;
39620;SDS011;25309;48.686;9.170;2023-03-30T08:16:55;11.90;;;5.20;;
39620;SDS011;25309;48.686;9.170;2023-03-30T08:19:23;10.27;;;5.03;;
39620;SDS011;25309;48.686;9.170;2023-03-30T08:21:50;10.63;;;3.73;;
39620;SDS011;25309;48.686;9.170;2023-03-30T08:24:21;8.17;;;3.30;;
39620;SDS011;25309;48.686;9.170;2023-03-30T08:26:48;9.67;;;3.00;;
39620;SDS011;25309;48.686;9.170;2023-03-30T08:29:16;7.27;;;2.90;;
39620;SDS011;25309;48.686;9.170;2023-03-30T08:31:44;10.87;;;3.70;;
39620;SDS011;25309;48.686;9.170;2023-03-30T08:34:11;10.30;;;3.50;;
39620;SDS011;25309;48.686;9.170;2023-03-30T08:36:38;9.40;;;3.30;;
39620;SDS011;25309;48.686;9.170;2023-03-30T08:39:05;9.07;;;3.30;;
39620;SDS011;25309;48.686;9.170;2023-03-30T08:41:40;9.73;;;3.40;;
39620;SDS011;25309;48.686;9.170;2023-03-30T08:44:18;9.50;;;3.07;;
39620;SDS011;25309;48.686;9.170;2023-03-30T08:46:53;9.23;;;3.87;;
39620;SDS011;25309;48.686;9.170;2023-03-30T08:49:20;8.33;;;3.00;;
39620;SDS011;25309;48.686;9.170;2023-03-30T08:51:48;10.50;;;3.43;;
39620;SDS011;25309;48.686;9.170;2023-03-30T08:54:18;11.77;;;3.23;;
39620;SDS011;25309;48.686;9.170;2023-03-30T08:56:53;8.30;;;3.43;;
39620;SDS011;25309;48.686;9.170;2023-03-30T08:59:28;10.20;;;3.23;;
39620;SDS011;25309;48.686;9.170;2023-03-30T09:02:02;7.37;;;2.60;;
39620;SDS011;25309;48.686;9.170;2023-03-30T09:04:42;6.37;;;2.77;;
39620;SDS011;25309;48.686;9.170;2023-03-30T09:07:27;6.23;;;2.27;;
39620;SDS011;25309;48.686;9.170;2023-03-30T09:09:58;4.63;;;2.13;;
39620;SDS011;25309;48.686;9.170;2023-03-30T09:12:28;5.33;;;2.03;;
39620;SDS011;25309;48.686;9.170;2023-03-30T09:15:03;4.47;;;2.37;;
39620;SDS011;25309;48.686;9.170;2023-03-30T09:17:35;5.10;;;2.40;;
39620;SDS011;25309;48.686;9.170;2023-03-30T09:20:07;4.73;;;2.70;;
39620;SDS011;25309;48.686;9.170;2023-03-30T09:22:40;6.83;;;2.20;;
39620;SDS011;25309;48.686;9.170;2023-03-30T09:25:13;5.10;;;2.37;;
39620;SDS011;25309;48.686;9.170;2023-03-30T09:27:46;5.57;;;2.10;;
39620;SDS011;25309;48.686;9.170;2023-03-30T09:30:25;4.87;;;2.20;;
39620;SDS011;25309;48.686;9.170;2023-03-30T09:32:58;6.17;;;2.27;;
39620;SDS011;25309;48.686;9.170;2023-03-30T09:35:28;4.60;;;2.00;;
39620;SDS011;25309;48.686;9.170;2023-03-30T09:38:03;5.03;;;2.10;;
39620;SDS011;25309;48.686;9.170;2023-03-30T09:40:33;3.40;;;2.13;;
39620;SDS011;25309;48.686;9.170;2023-03-30T09:43:13;4.63;;;2.73;;
39620;SDS011;25309;48.686;9.170;2023-03-30T09:45:46;4.53;;;2.00;;
39620;SDS011;25309;48.686;9.170;2023-03-30T09:48:13;4.47;;;2.03;;
39620;SDS011;25309;48.686;9.170;2023-03-30T09:50:42;3.07;;;2.10;;
39620;SDS011;25309;48.686;9.170;2023-03-30T09:53:17;3.33;;;2.30;;
39620;SDS011;25309;48.686;9.170;2023-03-30T09:55:53;5.00;;;2.43;;
39620;SDS011;25309;48.686;9.170;2023-03-30T09:58:28;5.30;;;2.40;;
39620;SDS011;25309;48.686;9.170;2023-03-30T10:01:00;4.60;;;2.53;;
39620;SDS011;25309;48.686;9.170;2023-03-30T10:03:28;6.30;;;3.30;;
39620;SDS011;25309;48.686;9.170;2023-03-30T10:05:59;5.27;;;3.00;;
39620;SDS011;25309;48.686;9.170;2023-03-30T10:08:29;5.10;;;2.70;;
39620;SDS011;25309;48.686;9.170;2023-03-30T10:10:57;5.07;;;2.70;;
39620;SDS011;25309;48.686;9.170;2023-03-30T10:13:26;4.23;;;2.67;;
39620;SDS011;25309;48.686;9.170;2023-03-30T10:16:00;6.10;;;3.10;;
39620;SDS011;25309;48.686;9.170;2023-03-30T10:18:33;4.70;;;2.83;;
39620;SDS011;25309;48.686;9.170;2023-03-30T10:21:05;6.77;;;3.20;;
39620;SDS011;25309;48.686;9.170;2023-03-30T10:23:37;5.93;;;3.20;;
39620;SDS011;25309;48.686;9.170;2023-03-30T10:26:10;7.80;;;3.60;;
39620;SDS011;25309;48.686;9.170;2023-03-30T10:28:49;6.10;;;2.93;;
39620;SDS011;25309;48.686;9.170;2023-03-30T10:31:17;4.63;;;2.57;;
39620;SDS011;25309;48.686;9.170;2023-03-30T10:33:45;5.13;;;2.30;;
39620;SDS011;25309;48.686;9.170;2023-03-30T10:36:14;5.90;;;2.97;;
39620;SDS011;25309;48.686;9.170;2023-03-30T10:38:42;5.37;;;2.93;;
39620;SDS011;25309;48.686;9.170;2023-03-30T10:41:11;4.77;;;2.83;;
39620;SDS011;25309;48.686;9.170;2023-03-30T10:43:40;5.13;;;2.40;;
39620;SDS011;25309;48.686;9.170;2023-03-30T10:46:10;7.23;;;3.10;;
39620;SDS011;25309;48.686;9.170;2023-03-30T10:48:48;5.20;;;2.50;;
39620;SDS011;25309;48.686;9.170;2023-03-30T10:51:24;6.17;;;2.40;;
39620;SDS011;25309;48.686;9.170;2023-03-30T10:54:02;5.40;;;2.37;;
39620;SDS011;25309;48.686;9.170;2023-03-30T10:56:36;4.70;;;2.20;;
39620;SDS011;25309;48.686;9.170;2023-03-30T10:59:13;7.10;;;2.80;;
39620;SDS011;25309;48.686;9.170;2023-03-30T11:01:54;5.00;;;2.70;;
39620;SDS011;25309;48.686;9.170;2023-03-30T11:04:36;5.30;;;2.80;;
39620;SDS011;25309;48.686;9.170;2023-03-30T11:07:09;6.00;;;2.97;;
39620;SDS011;25309;48.686;9.170;2023-03-30T11:09:42;7.07;;;2.80;;
39620;SDS011;25309;48.686;9.170;2023-03-30T11:12:16;6.57;;;3.00;;
39620;SDS011;25309;48.686;9.170;2023-03-30T11:14:46;8.40;;;3.17;;
39620;SDS011;25309;48.686;9.170;2023-03-30T11:17:19;8.47;;;3.40;;
39620;SDS011;25309;48.686;9.170;2023-03-30T11:19:49;7.53;;;3.20;;
39620;SDS011;25309;48.686;9.170;2023-03-30T11:22:23;8.20;;;3.30;;
39620;SDS011;25309;48.686;9.170;2023-03-30T11:24:59;7.00;;;3.43;;
39620;SDS011;25309;48.686;9.170;2023-03-30T11:27:29;7.70;;;3.30;;
39620;SDS011;25309;48.686;9.170;2023-03-30T11:30:01;11.43;;;3.40;;
39620;SDS011;25309;48.686;9.170;2023-03-30T11:32:36;6.17;;;3.60;;
39620;SDS011;25309;48.686;9.170;2023-03-30T11:35:11;7.23;;;3.10;;
39620;SDS011;25309;48.686;9.170;2023-03-30T11:37:44;8.13;;;3.70;;
39620;SDS011;25309;48.686;9.170;2023-03-30T11:40:17;10.53;;;3.70;;
39620;SDS011;25309;48.686;9.170;2023-03-30T11:42:46;5.20;;;3.00;;
39620;SDS011;25309;48.686;9.170;2023-03-30T11:45:20;8.23;;;3.57;;
39620;SDS011;25309;48.686;9.170;2023-03-30T11:48:04;6.87;;;3.10;;
39620;SDS011;25309;48.686;9.170;2023-03-30T11:50:44;6.60;;;3.53;;
39620;SDS011;25309;48.686;9.170;2023-03-30T11:53:25;7.50;;;3.07;;
39620;SDS011;25309;48.686;9.170;2023-03-30T11:56:00;7.67;;;3.60;;
39620;SDS011;25309;48.686;9.170;2023-03-30T11:58:33;8.23;;;3.57;;
39620;SDS011;25309;48.686;9.170;2023-03-30T12:01:05;6.90;;;3.50;;
39620;SDS011;25309;48.686;9.170;2023-03-30T12:03:51;7.10;;;3.40;;
39620;SDS011;25309;48.686;9.170;2023-03-30T12:06:31;6.67;;;3.53;;
39620;SDS011;25309;48.686;9.170;2023-03-30T12:09:04;7.77;;;3.37;;
39620;SDS011;25309;48.686;9.170;2023-03-30T12:11:40;7.33;;;3.20;;
39620;SDS011;25309;48.686;9.170;2023-03-30T12:14:19;7.83;;;3.60;;
39620;SDS011;25309;48.686;9.170;2023-03-30T12:17:12;6.63;;;3.20;;
39620;SDS011;25309;48.686;9.170;2023-03-30T12:19:54;8.27;;;3.60;;
39620;SDS011;25309;48.686;9.170;2023-03-30T12:22:26;8.50;;;4.00;;
39620;SDS011;25309;48.686;9.170;2023-03-30T12:25:02;9.87;;;4.17;;
39620;SDS011;25309;48.686;9.170;2023-03-30T12:27:50;7.67;;;3.37;;
39620;SDS011;25309;48.686;9.170;2023-03-30T12:30:25;5.63;;;3.20;;
39620;SDS011;25309;48.686;9.170;2023-03-30T12:32:57;5.47;;;2.87;;
39620;SDS011;25309;48.686;9.170;2023-03-30T12:35:51;5.20;;;2.90;;
39620;SDS011;25309;48.686;9.170;2023-03-30T12:38:22;5.00;;;2.80;;
39620;SDS011;25309;48.686;9.170;2023-03-30T12:40:55;6.77;;;2.97;;
39620;SDS011;25309;48.686;9.170;2023-03-30T12:43:31;5.80;;;2.87;;
39620;SDS011;25309;48.686;9.170;2023-03-30T12:46:09;6.50;;;2.80;;
39620;SDS011;25309;48.686;9.170;2023-03-30T12:48:42;5.40;;;3.00;;
39620;SDS011;25309;48.686;9.170;2023-03-30T12:51:23;5.37;;;3.13;;
39620;SDS011;25309;48.686;9.170;2023-03-30T12:54:01;7.13;;;3.07;;
39620;SDS011;25309;48.686;9.170;2023-03-30T12:56:42;7.33;;;2.70;;
39620;SDS011;25309;48.686;9.170;2023-03-30T13:02:30;5.17;;;2.60;;
39620;SDS011;25309;48.686;9.170;2023-03-30T13:05:22;6.27;;;3.10;;
39620;SDS011;25309;48.686;9.170;2023-03-30T13:07:53;4.97;;;2.50;;
39620;SDS011;25309;48.686;9.170;2023-03-30T13:10:41;5.33;;;2.77;;
39620;SDS011;25309;48.686;9.170;2023-03-30T13:13:15;6.10;;;2.73;;
39620;SDS011;25309;48.686;9.170;2023-03-30T13:15:47;6.37;;;2.57;;
39620;SDS011;25309;48.686;9.170;2023-03-30T13:18:23;5.13;;;2.70;;
39620;SDS011;25309;48.686;9.170;2023-03-30T13:21:14;6.27;;;2.73;;
39620;SDS011;25309;48.686;9.170;2023-03-30T13:23:48;5.20;;;2.80;;
39620;SDS011;25309;48.686;9.170;2023-03-30T13:26:26;6.83;;;3.10;;
39620;SDS011;25309;48.686;9.170;2023-03-30T13:29:05;6.60;;;2.67;;
39620;SDS011;25309;48.686;9.170;2023-03-30T13:31:38;5.33;;;2.57;;
39620;SDS011;25309;48.686;9.170;2023-03-30T13:34:13;5.73;;;2.50;;
39620;SDS011;25309;48.686;9.170;2023-03-30T13:36:46;4.43;;;2.40;;
39620;SDS011;25309;48.686;9.170;2023-03-30T13:39:25;5.87;;;2.87;;
39620;SDS011;25309;48.686;9.170;2023-03-30T13:42:00;5.30;;;2.80;;
39620;SDS011;25309;48.686;9.170;2023-03-30T13:44:44;4.93;;;2.50;;
39620;SDS011;25309;48.686;9.170;2023-03-30T13:47:25;6.27;;;2.13;;
39620;SDS011;25309;48.686;9.170;2023-03-30T13:49:59;5.87;;;2.50;;
39620;SDS011;25309;48.686;9.170;2023-03-30T13:52:29;6.77;;;2.40;;
39620;SDS011;25309;48.686;9.170;2023-03-30T13:55:00;4.93;;;2.43;;
39620;SDS011;25309;48.686;9.170;2023-03-30T13:57:30;5.20;;;2.37;;
39620;SDS011;25309;48.686;9.170;2023-03-30T14:00:01;6.23;;;2.40;;
39620;SDS011;25309;48.686;9.170;2023-03-30T14:02:37;3.43;;;1.97;;
39620;SDS011;25309;48.686;9.170;2023-03-30T14:05:12;5.47;;;2.03;;
39620;SDS011;25309;48.686;9.170;2023-03-30T14:07:45;5.63;;;2.30;;
39620;SDS011;25309;48.686;9.170;2023-03-30T14:10:16;4.33;;;2.00;;
39620;SDS011;25309;48.686;9.170;2023-03-30T14:12:46;4.20;;;2.00;;
39620;SDS011;25309;48.686;9.170;2023-03-30T14:15:18;4.17;;;2.13;;
39620;SDS011;25309;48.686;9.170;2023-03-30T14:17:48;3.53;;;2.23;;
39620;SDS011;25309;48.686;9.170;2023-03-30T14:20:20;3.73;;;1.70;;
39620;SDS011;25309;48.686;9.170;2023-03-30T14:22:54;3.03;;;1.43;;
39620;SDS011;25309;48.686;9.170;2023-03-30T14:25:26;5.73;;;1.70;;
39620;SDS011;25309;48.686;9.170;2023-03-30T14:27:55;4.60;;;1.77;;
39620;SDS011;25309;48.686;9.170;2023-03-30T14:30:23;5.47;;;1.90;;
39620;SDS011;25309;48.686;9.170;2023-03-30T14:35:36;3.97;;;1.80;;
39620;SDS011;25309;48.686;9.170;2023-03-30T14:38:08;3.23;;;1.73;;
39620;SDS011;25309;48.686;9.170;2023-03-30T14:40:44;4.97;;;2.10;;
39620;SDS011;25309;48.686;9.170;2023-03-30T14:43:13;5.07;;;2.00;;
39620;SDS011;25309;48.686;9.170;2023-03-30T14:45:43;5.23;;;1.93;;
39620;SDS011;25309;48.686;9.170;2023-03-30T14:48:14;4.53;;;2.10;;
39620;SDS011;25309;48.686;9.170;2023-03-30T14:50:49;3.43;;;1.60;;
39620;SDS011;25309;48.686;9.170;2023-03-30T14:53:17;2.20;;;1.50;;
39620;SDS011;25309;48.686;9.170;2023-03-30T14:55:48;5.10;;;1.90;;
39620;SDS011;25309;48.686;9.170;2023-03-30T14:58:15;2.93;;;1.67;;
39620;SDS011;25309;48.686;9.170;2023-03-30T15:00:43;3.27;;;1.90;;
39620;SDS011;25309;48.686;9.170;2023-03-30T15:03:11;4.97;;;1.67;;
39620;SDS011;25309;48.686;9.170;2023-03-30T15:05:58;5.10;;;2.07;;
39620;SDS011;25309;48.686;9.170;2023-03-30T15:08:26;4.63;;;1.83;;
39620;SDS011;25309;48.686;9.170;2023-03-30T15:10:58;4.07;;;1.83;;
39620;SDS011;25309;48.686;9.170;2023-03-30T15:13:30;3.43;;;1.70;;
39620;SDS011;25309;48.686;9.170;2023-03-30T15:16:00;4.60;;;1.60;;
39620;SDS011;25309;48.686;9.170;2023-03-30T15:18:29;4.13;;;1.60;;
39620;SDS011;25309;48.686;9.170;2023-03-30T15:20:58;6.80;;;2.13;;
39620;SDS011;25309;48.686;9.170;2023-03-30T15:23:28;3.73;;;1.73;;
39620;SDS011;25309;48.686;9.170;2023-03-30T15:26:00;3.43;;;1.53;;
39620;SDS011;25309;48.686;9.170;2023-03-30T15:28:29;4.13;;;1.83;;
39620;SDS011;25309;48.686;9.170;2023-03-30T15:31:00;3.70;;;1.73;;
39620;SDS011;25309;48.686;9.170;2023-03-30T15:33:28;4.20;;;1.33;;
39620;SDS011;25309;48.686;9.170;2023-03-30T15:36:02;4.53;;;1.47;;
39620;SDS011;25309;48.686;9.170;2023-03-30T15:38:32;3.73;;;1.60;;
39620;SDS011;25309;48.686;9.170;2023-03-30T15:41:07;3.80;;;1.90;;
39620;SDS011;25309;48.686;9.170;2023-03-30T15:43:35;4.67;;;1.70;;
39620;SDS011;25309;48.686;9.170;2023-03-30T15:46:03;2.83;;;1.77;;
39620;SDS011;25309;48.686;9.170;2023-03-30T15:48:34;2.70;;;1.20;;
39620;SDS011;25309;48.686;9.170;2023-03-30T15:51:07;3.10;;;1.87;;
39620;SDS011;25309;48.686;9.170;2023-03-30T15:53:40;2.40;;;1.17;;
39620;SDS011;25309;48.686;9.170;2023-03-30T15:56:12;2.83;;;1.23;;
39620;SDS011;25309;48.686;9.170;2023-03-30T15:58:43;2.67;;;1.40;;
39620;SDS011;25309;48.686;9.170;2023-03-30T16:01:11;2.67;;;1.10;;
39620;SDS011;25309;48.686;9.170;2023-03-30T16:03:41;3.10;;;1.20;;
39620;SDS011;25309;48.686;9.170;2023-03-30T16:06:17;2.37;;;1.30;;
39620;SDS011;25309;48.686;9.170;2023-03-30T16:08:45;3.83;;;1.30;;
39620;SDS011;25309;48.686;9.170;2023-03-30T16:11:14;1.77;;;1.00;;
39620;SDS011;25309;48.686;9.170;2023-03-30T16:13:43;4.20;;;1.00;;
39620;SDS011;25309;48.686;9.170;2023-03-30T16:16:11;0.87;;;0.70;;
39620;SDS011;25309;48.686;9.170;2023-03-30T16:18:39;1.77;;;0.87;;
39620;SDS011;25309;48.686;9.170;2023-03-30T16:21:08;2.57;;;1.07;;
39620;SDS011;25309;48.686;9.170;2023-03-30T16:23:36;2.13;;;1.00;;
39620;SDS011;25309;48.686;9.170;2023-03-30T16:26:03;2.53;;;1.00;;
39620;SDS011;25309;48.686;9.170;2023-03-30T16:28:32;2.80;;;1.00;;
39620;SDS011;25309;48.686;9.170;2023-03-30T16:31:00;3.57;;;0.97;;
39620;SDS011;25309;48.686;9.170;2023-03-30T16:33:30;2.47;;;0.90;;
39620;SDS011;25309;48.686;9.170;2023-03-30T16:35:57;2.93;;;0.77;;
39620;SDS011;25309;48.686;9.170;2023-03-30T16:38:24;2.40;;;0.80;;
39620;SDS011;25309;48.686;9.170;2023-03-30T16:40:51;1.70;;;0.80;;
39620;SDS011;25309;48.686;9.170;2023-03-30T16:43:21;3.00;;;0.90;;
39620;SDS011;25309;48.686;9.170;2023-03-30T16:45:49;3.30;;;0.90;;
39620;SDS011;25309;48.686;9.170;2023-03-30T16:48:16;1.30;;;0.70;;
39620;SDS011;25309;48.686;9.170;2023-03-30T16:50:44;2.47;;;1.00;;
39620;SDS011;25309;48.686;9.170;2023-03-30T16:53:12;3.43;;;1.00;;
39620;SDS011;25309;48.686;9.170;2023-03-30T16:55:39;2.17;;;0.80;;
39620;SDS011;25309;48.686;9.170;2023-03-30T16:58:07;2.67;;;1.13;;
39620;SDS011;25309;48.686;9.170;2023-03-30T17:00:37;3.40;;;1.00;;
39620;SDS011;25309;48.686;9.170;2023-03-30T17:03:07;2.53;;;1.13;;
39620;SDS011;25309;48.686;9.170;2023-03-30T17:05:35;4.07;;;1.27;;
39620;SDS011;25309;48.686;9.170;2023-03-30T17:08:02;2.60;;;1.20;;
39620;SDS011;25309;48.686;9.170;2023-03-30T17:10:31;1.93;;;1.00;;
39620;SDS011;25309;48.686;9.170;2023-03-30T17:12:59;3.33;;;1.00;;
39620;SDS011;25309;48.686;9.170;2023-03-30T17:15:26;3.20;;;0.90;;
39620;SDS011;25309;48.686;9.170;2023-03-30T17:17:53;4.40;;;1.10;;
39620;SDS011;25309;48.686;9.170;2023-03-30T17:20:23;2.93;;;1.10;;
39620;SDS011;25309;48.686;9.170;2023-03-30T17:22:52;1.90;;;0.90;;
39620;SDS011;25309;48.686;9.170;2023-03-30T17:25:19;2.23;;;1.10;;
39620;SDS011;25309;48.686;9.170;2023-03-30T17:27:49;2.80;;;0.90;;
39620;SDS011;25309;48.686;9.170;2023-03-30T17:30:18;1.67;;;0.90;;
39620;SDS011;25309;48.686;9.170;2023-03-30T17:32:47;3.13;;;1.13;;
39620;SDS011;25309;48.686;9.170;2023-03-30T17:35:15;3.03;;;1.53;;
39620;SDS011;25309;48.686;9.170;2023-03-30T17:37:43;2.70;;;1.43;;
39620;SDS011;25309;48.686;9.170;2023-03-30T17:40:16;3.40;;;1.40;;
39620;SDS011;25309;48.686;9.170;2023-03-30T17:42:44;3.90;;;1.20;;
39620;SDS011;25309;48.686;9.170;2023-03-30T17:45:12;4.07;;;1.70;;
39620;SDS011;25309;48.686;9.170;2023-03-30T17:47:41;5.10;;;1.50;;
39620;SDS011;25309;48.686;9.170;2023-03-30T17:50:14;3.43;;;1.00;;
39620;SDS011;25309;48.686;9.170;2023-03-30T17:52:45;2.63;;;1.40;;
39620;SDS011;25309;48.686;9.170;2023-03-30T17:55:13;3.53;;;2.20;;
39620;SDS011;25309;48.686;9.170;2023-03-30T17:57:40;2.83;;;1.53;;
39620;SDS011;25309;48.686;9.170;2023-03-30T18:00:11;3.33;;;1.63;;
39620;SDS011;25309;48.686;9.170;2023-03-30T18:02:45;5.50;;;2.60;;
39620;SDS011;25309;48.686;9.170;2023-03-30T18:05:13;5.37;;;3.47;;
39620;SDS011;25309;48.686;9.170;2023-03-30T18:07:40;6.53;;;2.77;;
39620;SDS011;25309;48.686;9.170;2023-03-30T18:10:16;4.70;;;2.20;;
39620;SDS011;25309;48.686;9.170;2023-03-30T18:12:46;4.30;;;2.20;;
39620;SDS011;25309;48.686;9.170;2023-03-30T18:15:14;4.80;;;2.50;;
39620;SDS011;25309;48.686;9.170;2023-03-30T18:17:41;4.80;;;2.40;;
39620;SDS011;25309;48.686;9.170;2023-03-30T18:20:13;5.33;;;2.70;;
39620;SDS011;25309;48.686;9.170;2023-03-30T18:22:51;4.20;;;1.60;;
39620;SDS011;25309;48.686;9.170;2023-03-30T18:25:19;2.63;;;1.37;;
39620;SDS011;25309;48.686;9.170;2023-03-30T18:27:57;3.77;;;1.63;;
39620;SDS011;25309;48.686;9.170;2023-03-30T18:30:26;3.40;;;1.40;;